Time;durP1;ratioP1;P1;durP2;ratioP2;P2;SDS_P1;SDS_P2;PMS_P1;PMS_P2;Temp;Humidity;BMP_temperature;BMP_pressure;BME280_temperature;BME280_humidity;BME280_pressure;Samples;Min_cycle;Max_cycle;Signal;HPM_P1;HPM_P2
2024/01/14 00:00:50;;;;;;;;;;;;;;;6.85;87.08;101393.63;7287449;19;20348;-68
2024/01/14 00:03:17;;;;;;;;;;;;;;;6.75;86.55;101398.72;7293710;19;20261;-70
2024/01/14 00:05:44;;;;;;;;;;;;;;;6.69;86.79;101398.31;7304002;19;20166;-69
2024/01/14 00:08:11;;;;;;;;;;;;;;;6.60;86.86;101392.00;7305913;19;20795;-69
2024/01/14 00:10:38;;;;;;;;;;;;;;;6.56;86.92;101398.38;7291272;19;20304;-70
2024/01/14 00:13:05;;;;;;;;;;;;;;;6.51;87.49;101400.50;7290298;19;20351;-70
2024/01/14 00:15:32;;;;;;;;;;;;;;;6.55;87.53;101399.34;7314072;19;19930;-70
2024/01/14 00:17:59;;;;;;;;;;;;;;;6.59;89.13;101400.78;7296638;19;19922;-69
2024/01/14 00:20:26;;;;;;;;;;;;;;;6.59;88.17;101398.16;7290219;19;20201;-71
2024/01/14 00:22:53;;;;;;;;;;;;;;;6.62;88.95;101392.69;7296341;19;20398;-71
2024/01/14 00:25:21;;;;;;;;;;;;;;;6.63;88.62;101394.38;7300589;19;19919;-69
2024/01/14 00:27:48;;;;;;;;;;;;;;;6.61;88.56;101390.19;7299768;19;19930;-68
2024/01/14 00:30:15;;;;;;;;;;;;;;;6.62;88.89;101395.31;7297745;19;20494;-69
2024/01/14 00:32:42;;;;;;;;;;;;;;;6.63;88.61;101398.75;7278814;19;19918;-69
2024/01/14 00:35:09;;;;;;;;;;;;;;;6.64;88.50;101395.22;7288719;19;19922;-70
2024/01/14 00:37:36;;;;;;;;;;;;;;;6.65;88.24;101387.25;7291542;19;20612;-70
2024/01/14 00:40:07;;;;;;;;;;;;;;;6.64;88.22;101384.75;7300129;19;19927;-70
2024/01/14 00:42:34;;;;;;;;;;;;;;;6.64;87.93;101385.59;7290256;19;20005;-70
2024/01/14 00:45:01;;;;;;;;;;;;;;;6.62;87.53;101384.84;7293363;19;20219;-70
2024/01/14 00:47:30;;;;;;;;;;;;;;;6.66;87.66;101390.69;7295851;19;19918;-69
2024/01/14 00:49:57;;;;;;;;;;;;;;;6.64;87.49;101387.38;7296444;19;19923;-70
2024/01/14 00:52:25;;;;;;;;;;;;;;;6.63;87.31;101386.53;7286247;19;21715;-69
2024/01/14 00:54:51;;;;;;;;;;;;;;;6.62;87.06;101381.41;7286275;19;20756;-69
2024/01/14 00:57:18;;;;;;;;;;;;;;;6.59;86.56;101377.25;7275244;19;20114;-70
2024/01/14 00:59:45;;;;;;;;;;;;;;;6.59;86.44;101379.03;7286804;19;19933;-70
2024/01/14 01:02:16;;;;;;;;;;;;;;;6.58;87.18;101374.75;7284776;19;19919;-69
2024/01/14 01:04:44;;;;;;;;;;;;;;;6.59;87.87;101371.19;7297225;19;19915;-69
2024/01/14 01:07:10;;;;;;;;;;;;;;;6.58;88.30;101364.28;7293259;19;19915;-69
2024/01/14 01:09:38;;;;;;;;;;;;;;;6.56;88.47;101358.31;7288665;19;20376;-70
2024/01/14 01:12:05;;;;;;;;;;;;;;;6.58;87.85;101361.66;7294615;19;20280;-71
2024/01/14 01:14:32;;;;;;;;;;;;;;;6.54;86.92;101358.47;7292354;19;21477;-67
2024/01/14 01:16:59;;;;;;;;;;;;;;;6.50;86.68;101351.81;7292571;19;20534;-70
2024/01/14 01:19:26;;;;;;;;;;;;;;;6.44;86.78;101349.63;7292729;19;20117;-69
2024/01/14 01:21:53;;;;;;;;;;;;;;;6.44;86.73;101347.88;7299394;19;20459;-71
2024/01/14 01:24:19;;;;;;;;;;;;;;;6.40;86.73;101348.16;7291520;19;20161;-71
2024/01/14 01:26:46;;;;;;;;;;;;;;;6.42;87.32;101343.69;7295876;19;22047;-69
2024/01/14 01:29:13;;;;;;;;;;;;;;;6.39;87.50;101339.53;7294016;19;19932;-70
2024/01/14 01:31:40;;;;;;;;;;;;;;;6.40;87.28;101340.34;7300729;19;19982;-69
2024/01/14 01:34:17;;;;;;;;;;;;;;;6.37;86.93;101330.13;7296691;19;20458;-68
2024/01/14 01:36:44;;;;;;;;;;;;;;;6.39;87.17;101326.47;7304956;19;20330;-69
2024/01/14 01:39:11;;;;;;;;;;;;;;;6.39;87.49;101330.84;7297099;19;19941;-69
2024/01/14 01:41:38;;;;;;;;;;;;;;;6.41;87.96;101328.94;7273524;19;19927;-70
2024/01/14 01:44:06;;;;;;;;;;;;;;;6.42;88.05;101325.38;7293163;19;19922;-70
2024/01/14 01:46:37;;;;;;;;;;;;;;;6.43;87.19;101334.91;7292948;19;21532;-69
2024/01/14 01:49:04;;;;;;;;;;;;;;;6.44;87.11;101326.13;7280101;19;20269;-70
2024/01/14 01:51:31;;;;;;;;;;;;;;;6.45;88.32;101327.75;7278236;19;21447;-70
2024/01/14 01:53:58;;;;;;;;;;;;;;;6.42;87.63;101328.84;7281499;19;19919;-70
2024/01/14 01:56:25;;;;;;;;;;;;;;;6.43;87.62;101324.44;7285619;19;20326;-70
2024/01/14 01:58:52;;;;;;;;;;;;;;;6.47;88.75;101318.03;7295713;19;20010;-69
2024/01/14 02:01:21;;;;;;;;;;;;;;;6.45;88.16;101314.69;7280663;19;19914;-69
2024/01/14 02:03:50;;;;;;;;;;;;;;;6.49;87.76;101310.94;7269042;19;19941;-69
2024/01/14 02:06:17;;;;;;;;;;;;;;;6.45;87.35;101299.84;7284092;19;20285;-70
2024/01/14 02:08:44;;;;;;;;;;;;;;;6.42;87.18;101292.25;7277898;19;20589;-69
2024/01/14 02:11:11;;;;;;;;;;;;;;;6.39;87.38;101292.50;7290252;19;19952;-71
2024/01/14 02:13:38;;;;;;;;;;;;;;;6.38;87.79;101289.97;7290726;19;20189;-70
2024/01/14 02:16:06;;;;;;;;;;;;;;;6.40;87.93;101282.84;7280593;19;20486;-68
2024/01/14 02:18:32;;;;;;;;;;;;;;;6.45;88.66;101280.72;7280014;19;19990;-67
2024/01/14 02:21:00;;;;;;;;;;;;;;;6.49;89.45;101276.13;7284728;19;20007;-67
2024/01/14 02:23:33;;;;;;;;;;;;;;;6.49;89.42;101271.72;7287723;19;20453;-67
2024/01/14 02:26:00;;;;;;;;;;;;;;;6.46;89.95;101269.31;7302520;19;19919;-66
2024/01/14 02:28:27;;;;;;;;;;;;;;;6.46;89.40;101269.31;7296499;19;19926;-67
2024/01/14 02:30:54;;;;;;;;;;;;;;;6.39;88.75;101261.13;7294653;19;19929;-67
2024/01/14 02:33:21;;;;;;;;;;;;;;;6.40;88.43;101270.59;7286609;19;19919;-66
2024/01/14 02:35:48;;;;;;;;;;;;;;;6.44;89.12;101264.22;7294502;19;19919;-66
2024/01/14 02:38:16;;;;;;;;;;;;;;;6.48;89.96;101259.59;7288993;19;19921;-67
2024/01/14 02:40:43;;;;;;;;;;;;;;;6.52;90.15;101262.81;7305829;19;19945;-67
2024/01/14 02:43:09;;;;;;;;;;;;;;;6.51;90.23;101261.97;7280234;19;19990;-66
2024/01/14 02:45:36;;;;;;;;;;;;;;;6.49;89.32;101263.88;7296929;19;19926;-67
2024/01/14 02:48:04;;;;;;;;;;;;;;;6.42;88.29;101255.66;7286065;19;19919;-67
2024/01/14 02:50:31;;;;;;;;;;;;;;;6.46;88.48;101261.47;7292642;19;19922;-67
2024/01/14 02:52:58;;;;;;;;;;;;;;;6.47;88.28;101260.53;7283228;19;19954;-66
2024/01/14 02:55:25;;;;;;;;;;;;;;;6.46;88.00;101256.25;7288221;19;19923;-68
2024/01/14 02:57:52;;;;;;;;;;;;;;;6.43;87.92;101253.88;7292294;19;19922;-67
2024/01/14 03:00:19;;;;;;;;;;;;;;;6.42;87.98;101255.66;7281833;19;19911;-67
2024/01/14 03:02:46;;;;;;;;;;;;;;;6.43;88.15;101251.28;7295753;19;19934;-66
2024/01/14 03:05:13;;;;;;;;;;;;;;;6.43;87.99;101248.66;7296619;19;20615;-66
2024/01/14 03:07:40;;;;;;;;;;;;;;;6.40;87.88;101249.69;7286662;19;19933;-67
2024/01/14 03:10:07;;;;;;;;;;;;;;;6.39;87.80;101248.06;7306685;19;19922;-68
2024/01/14 03:12:34;;;;;;;;;;;;;;;6.41;88.17;101240.09;7310418;19;19941;-67
2024/01/14 03:15:01;;;;;;;;;;;;;;;6.45;88.14;101239.72;7311140;19;20009;-67
2024/01/14 03:17:28;;;;;;;;;;;;;;;6.43;88.27;101235.59;7297298;19;20269;-66
2024/01/14 03:19:55;;;;;;;;;;;;;;;6.43;88.00;101232.97;7300833;19;19957;-67
2024/01/14 03:22:23;;;;;;;;;;;;;;;6.42;88.39;101234.75;7283089;19;19914;-67
2024/01/14 03:24:52;;;;;;;;;;;;;;;6.40;88.52;101231.41;7291687;19;19926;-69
2024/01/14 03:27:19;;;;;;;;;;;;;;;6.40;88.55;101223.56;7286055;19;20546;-67
2024/01/14 03:29:46;;;;;;;;;;;;;;;6.40;88.65;101231.41;7299747;19;19930;-66
2024/01/14 03:32:13;;;;;;;;;;;;;;;6.36;88.55;101227.38;7311775;19;19922;-68
2024/01/14 03:34:39;;;;;;;;;;;;;;;6.39;88.90;101215.88;7281629;19;20023;-66
2024/01/14 03:37:07;;;;;;;;;;;;;;;6.40;89.02;101222.72;7275747;19;20556;-66
2024/01/14 03:39:34;;;;;;;;;;;;;;;6.39;88.66;101218.47;7288517;19;19918;-68
2024/01/14 03:42:01;;;;;;;;;;;;;;;6.36;89.01;101221.31;7313278;19;20285;-67
2024/01/14 03:44:28;;;;;;;;;;;;;;;6.35;89.39;101209.19;7310923;19;20446;-67
2024/01/14 03:46:56;;;;;;;;;;;;;;;6.37;89.76;101210.75;7310195;19;19927;-68
2024/01/14 03:49:23;;;;;;;;;;;;;;;6.37;89.55;101205.53;7311482;19;19914;-67
2024/01/14 03:51:50;;;;;;;;;;;;;;;6.38;89.68;101201.13;7290579;19;20236;-68
2024/01/14 03:54:17;;;;;;;;;;;;;;;6.40;89.61;101210.50;7288715;19;20315;-66
2024/01/14 03:56:44;;;;;;;;;;;;;;;6.39;89.41;101206.25;7283322;19;19930;-66
2024/01/14 03:59:11;;;;;;;;;;;;;;;6.42;89.26;101199.94;7295024;19;20671;-66
2024/01/14 04:01:38;;;;;;;;;;;;;;;6.42;89.57;101203.38;7294769;19;20203;-68
2024/01/14 04:04:06;;;;;;;;;;;;;;;6.41;89.75;101199.09;7291410;19;20607;-67
2024/01/14 04:06:33;;;;;;;;;;;;;;;6.38;89.31;101190.69;7272633;19;19937;-66
2024/01/14 04:09:00;;;;;;;;;;;;;;;6.36;89.18;101187.34;7284542;19;20087;-68
2024/01/14 04:11:27;;;;;;;;;;;;;;;6.36;89.37;101179.50;7293039;19;19930;-68
2024/01/14 04:13:54;;;;;;;;;;;;;;;6.33;89.63;101175.34;7288130;19;19943;-67
2024/01/14 04:16:21;;;;;;;;;;;;;;;6.37;90.13;101174.16;7280106;19;19930;-67
2024/01/14 04:18:48;;;;;;;;;;;;;;;6.35;89.53;101170.00;7276484;19;21481;-66
2024/01/14 04:21:21;;;;;;;;;;;;;;;6.34;89.42;101170.97;7292383;19;20406;-68
2024/01/14 04:23:49;;;;;;;;;;;;;;;6.33;89.61;101171.91;7274177;19;19934;-66
2024/01/14 04:26:22;;;;;;;;;;;;;;;6.30;89.61;101169.50;7292205;19;22869;-66
2024/01/14 04:28:52;;;;;;;;;;;;;;;6.35;90.06;101167.38;7282774;19;20486;-67
2024/01/14 04:31:19;;;;;;;;;;;;;;;6.37;89.65;101160.25;7290580;19;19923;-66
2024/01/14 04:33:46;;;;;;;;;;;;;;;6.35;89.99;101160.38;7285461;19;20661;-66
2024/01/14 04:36:17;;;;;;;;;;;;;;;6.34;89.72;101155.28;7284214;19;20551;-67
2024/01/14 04:38:43;;;;;;;;;;;;;;;6.34;90.22;101143.06;7273908;19;22781;-67
2024/01/14 04:41:10;;;;;;;;;;;;;;;6.31;90.08;101150.28;7296156;19;19918;-68
2024/01/14 04:43:38;;;;;;;;;;;;;;;6.31;90.03;101137.22;7270175;19;19927;-67
2024/01/14 04:46:09;;;;;;;;;;;;;;;6.31;89.74;101132.00;7284399;19;19930;-66
2024/01/14 04:48:35;;;;;;;;;;;;;;;6.28;89.79;101132.25;7287858;19;19922;-67
2024/01/14 04:51:03;;;;;;;;;;;;;;;6.26;90.28;101119.28;7286209;19;19918;-67
2024/01/14 04:53:30;;;;;;;;;;;;;;;6.26;90.10;101116.66;7291115;19;20425;-66
2024/01/14 04:55:56;;;;;;;;;;;;;;;6.27;90.54;101112.28;7288848;19;19922;-67
2024/01/14 04:58:23;;;;;;;;;;;;;;;6.25;90.24;101099.31;7288907;19;21150;-67
2024/01/14 05:00:51;;;;;;;;;;;;;;;6.27;90.53;101102.66;7284397;19;19987;-67
2024/01/14 05:03:18;;;;;;;;;;;;;;;6.26;90.66;101102.78;7278580;19;19922;-67
2024/01/14 05:05:45;;;;;;;;;;;;;;;6.21;90.13;101105.75;7272471;19;19927;-68
2024/01/14 05:08:12;;;;;;;;;;;;;;;6.19;90.21;101099.81;7281808;19;20339;-67
2024/01/14 05:10:38;;;;;;;;;;;;;;;6.19;90.27;101094.59;7290663;19;20392;-67
2024/01/14 05:13:05;;;;;;;;;;;;;;;6.21;90.37;101092.69;7279208;19;22151;-68
2024/01/14 05:15:32;;;;;;;;;;;;;;;6.21;89.92;101094.47;7283649;19;20323;-67
2024/01/14 05:17:59;;;;;;;;;;;;;;;6.18;89.76;101090.31;7289242;19;19932;-68
2024/01/14 05:20:27;;;;;;;;;;;;;;;6.16;90.26;101088.75;7303834;19;19994;-69
2024/01/14 05:22:54;;;;;;;;;;;;;;;6.17;90.09;101099.09;7287062;19;19919;-66
2024/01/14 05:25:21;;;;;;;;;;;;;;;6.16;90.46;101083.53;7282477;19;19955;-67
2024/01/14 05:27:48;;;;;;;;;;;;;;;6.15;89.99;101084.47;7290497;19;20010;-66
2024/01/14 05:30:15;;;;;;;;;;;;;;;6.15;90.14;101080.09;7304370;19;20422;-66
2024/01/14 05:32:42;;;;;;;;;;;;;;;6.17;90.13;101088.66;7284591;19;19918;-68
2024/01/14 05:35:09;;;;;;;;;;;;;;;6.14;90.02;101088.91;7284584;19;19921;-67
2024/01/14 05:37:36;;;;;;;;;;;;;;;6.12;89.99;101089.94;7286057;19;19929;-67
2024/01/14 05:40:06;;;;;;;;;;;;;;;6.13;90.39;101086.41;7281805;19;20234;-66
2024/01/14 05:42:33;;;;;;;;;;;;;;;6.15;90.30;101082.69;7289414;19;20493;-66
2024/01/14 05:45:00;;;;;;;;;;;;;;;6.19;90.81;101086.75;7273186;19;19925;-67
2024/01/14 05:47:27;;;;;;;;;;;;;;;6.18;91.25;101079.03;7281576;19;19915;-67
2024/01/14 05:49:54;;;;;;;;;;;;;;;6.11;90.63;101083.88;7285307;19;19951;-66
2024/01/14 05:52:21;;;;;;;;;;;;;;;6.13;90.05;101092.44;7290333;19;20234;-67
2024/01/14 05:54:48;;;;;;;;;;;;;;;6.13;90.59;101078.56;7286246;19;19914;-68
2024/01/14 05:57:15;;;;;;;;;;;;;;;6.11;90.37;101083.06;7295340;19;20319;-67
2024/01/14 05:59:42;;;;;;;;;;;;;;;6.09;90.73;101074.53;7287416;19;20010;-66
2024/01/14 06:02:09;;;;;;;;;;;;;;;6.10;90.84;101073.56;7287035;19;19982;-68
2024/01/14 06:04:36;;;;;;;;;;;;;;;6.11;90.87;101080.44;7300634;19;19957;-67
2024/01/14 06:07:03;;;;;;;;;;;;;;;6.16;91.01;101075.69;7290944;19;20257;-67
2024/01/14 06:09:30;;;;;;;;;;;;;;;6.18;90.59;101068.59;7293871;19;19942;-67
2024/01/14 06:11:57;;;;;;;;;;;;;;;6.22;91.07;101067.41;7287055;19;19919;-67
2024/01/14 06:14:24;;;;;;;;;;;;;;;6.24;91.00;101066.34;7287794;19;19975;-67
2024/01/14 06:16:51;;;;;;;;;;;;;;;6.27;91.35;101062.66;7293071;19;19921;-67
2024/01/14 06:19:18;;;;;;;;;;;;;;;6.29;91.62;101060.75;7297395;19;19954;-66
2024/01/14 06:21:45;;;;;;;;;;;;;;;6.27;91.56;101073.09;7295918;19;20000;-67
2024/01/14 06:24:13;;;;;;;;;;;;;;;6.22;90.88;101067.41;7291693;19;19918;-67
2024/01/14 06:26:41;;;;;;;;;;;;;;;6.23;90.49;101066.44;7308001;19;22225;-67
2024/01/14 06:29:07;;;;;;;;;;;;;;;6.22;90.39;101059.56;7293264;19;20732;-69
2024/01/14 06:31:34;;;;;;;;;;;;;;;6.23;90.10;101061.22;7284639;19;20299;-67
2024/01/14 06:34:01;;;;;;;;;;;;;;;6.20;90.18;101057.06;7293295;19;19959;-67
2024/01/14 06:36:28;;;;;;;;;;;;;;;6.21;90.69;101050.88;7298956;19;20009;-68
2024/01/14 06:38:55;;;;;;;;;;;;;;;6.19;90.98;101058.03;7308996;19;19923;-67
2024/01/14 06:41:25;;;;;;;;;;;;;;;6.19;90.90;101058.03;7301015;19;19923;-69
2024/01/14 06:43:52;;;;;;;;;;;;;;;6.17;90.39;101054.69;7282824;19;20378;-66
2024/01/14 06:46:19;;;;;;;;;;;;;;;6.18;90.80;101064.19;7282835;19;20126;-67
2024/01/14 06:48:46;;;;;;;;;;;;;;;6.14;90.72;101057.56;7291361;19;21161;-66
2024/01/14 06:51:13;;;;;;;;;;;;;;;6.17;91.10;101059.06;7304928;19;20017;-67
2024/01/14 06:53:41;;;;;;;;;;;;;;;6.22;90.99;101056.94;7305534;19;19918;-68
2024/01/14 06:56:08;;;;;;;;;;;;;;;6.17;90.95;101061.69;7300700;19;20612;-68
2024/01/14 06:58:35;;;;;;;;;;;;;;;6.18;90.47;101052.91;7287077;19;19922;-67
2024/01/14 07:01:03;;;;;;;;;;;;;;;6.12;90.27;101059.44;7298604;19;19934;-67
2024/01/14 07:03:31;;;;;;;;;;;;;;;6.11;90.60;101052.56;7304942;19;19922;-69
2024/01/14 07:05:58;;;;;;;;;;;;;;;6.11;90.86;101057.78;7308044;19;19915;-68
2024/01/14 07:08:25;;;;;;;;;;;;;;;6.12;91.31;101053.38;7298488;19;19918;-67
2024/01/14 07:10:53;;;;;;;;;;;;;;;6.11;90.98;101054.31;7300217;19;20177;-69
2024/01/14 07:13:19;;;;;;;;;;;;;;;6.11;91.16;101055.16;7285212;19;19936;-68
2024/01/14 07:15:46;;;;;;;;;;;;;;;6.14;90.87;101065.38;7285531;19;19915;-66
2024/01/14 07:18:13;;;;;;;;;;;;;;;6.13;90.67;101053.28;7283433;19;19946;-69
2024/01/14 07:20:41;;;;;;;;;;;;;;;6.15;90.95;101050.53;7290151;19;20219;-68
2024/01/14 07:23:08;;;;;;;;;;;;;;;6.16;90.79;101060.03;7289797;19;20967;-68
2024/01/14 07:25:55;;;;;;;;;;;;;;;6.18;91.05;101052.91;7294732;19;19972;-67
2024/01/14 07:28:22;;;;;;;;;;;;;;;6.18;90.51;101050.31;7308443;19;21456;-66
2024/01/14 07:30:49;;;;;;;;;;;;;;;6.17;90.58;101057.31;7314026;19;20694;-67
2024/01/14 07:33:16;;;;;;;;;;;;;;;6.20;90.62;101049.22;7292930;19;19982;-67
2024/01/14 07:35:43;;;;;;;;;;;;;;;6.23;91.12;101059.44;7297580;19;19926;-68
2024/01/14 07:38:09;;;;;;;;;;;;;;;6.22;90.88;101043.88;7282761;19;19930;-66
2024/01/14 07:40:36;;;;;;;;;;;;;;;6.27;91.99;101049.56;7294958;19;20413;-66
2024/01/14 07:43:03;;;;;;;;;;;;;;;6.24;91.41;101047.22;7294554;19;19923;-69
2024/01/14 07:45:30;;;;;;;;;;;;;;;6.26;91.26;101045.31;7295782;19;20631;-68
2024/01/14 07:47:57;;;;;;;;;;;;;;;6.26;90.90;101040.91;7301710;19;19926;-68
2024/01/14 07:50:24;;;;;;;;;;;;;;;6.26;90.06;101029.63;7292736;19;19942;-67
2024/01/14 07:52:51;;;;;;;;;;;;;;;6.26;90.09;101024.41;7291901;19;20134;-66
2024/01/14 07:55:18;;;;;;;;;;;;;;;6.24;89.91;101029.75;7301959;19;19919;-67
2024/01/14 07:57:45;;;;;;;;;;;;;;;6.27;90.04;101029.50;7287538;19;21165;-67
2024/01/14 08:00:12;;;;;;;;;;;;;;;6.31;90.01;101024.88;7302256;19;19919;-69
2024/01/14 08:02:39;;;;;;;;;;;;;;;6.34;90.26;101024.66;7286732;19;19921;-68
2024/01/14 08:05:06;;;;;;;;;;;;;;;6.39;90.61;101017.28;7287557;19;19998;-67
2024/01/14 08:07:36;;;;;;;;;;;;;;;6.44;90.58;101022.97;7293971;19;20291;-67
2024/01/14 08:10:04;;;;;;;;;;;;;;;6.40;89.66;101027.59;7309522;19;20444;-67
2024/01/14 08:12:31;;;;;;;;;;;;;;;6.40;89.05;101031.97;7296864;19;19935;-67
2024/01/14 08:14:58;;;;;;;;;;;;;;;6.38;88.88;101023.44;7294259;19;20163;-67
2024/01/14 08:17:26;;;;;;;;;;;;;;;6.44;89.86;101017.75;7293047;19;20611;-66
2024/01/14 08:19:53;;;;;;;;;;;;;;;6.42;89.48;101012.63;7296016;19;19914;-69
2024/01/14 08:22:20;;;;;;;;;;;;;;;6.42;89.10;101012.63;7293778;19;19919;-67
2024/01/14 08:24:47;;;;;;;;;;;;;;;6.45;89.14;101014.97;7292369;19;19922;-68
2024/01/14 08:27:17;;;;;;;;;;;;;;;6.45;88.85;101014.16;7282186;19;19929;-67
2024/01/14 08:29:44;;;;;;;;;;;;;;;6.50;88.85;101008.59;7306520;19;19914;-68
2024/01/14 08:32:11;;;;;;;;;;;;;;;6.55;88.82;101017.72;7296934;19;19949;-67
2024/01/14 08:34:38;;;;;;;;;;;;;;;6.54;88.73;101003.00;7301570;19;19954;-67
2024/01/14 08:37:05;;;;;;;;;;;;;;;6.54;87.98;101003.00;7286465;19;19925;-67
2024/01/14 08:39:32;;;;;;;;;;;;;;;6.56;87.60;101000.22;7272759;19;20599;-66
2024/01/14 08:41:59;;;;;;;;;;;;;;;6.56;87.27;101003.69;7270822;19;19915;-66
2024/01/14 08:44:26;;;;;;;;;;;;;;;6.61;86.79;101006.75;7279298;19;19911;-68
2024/01/14 08:46:55;;;;;;;;;;;;;;;6.61;86.80;101003.31;7292801;19;19923;-66
2024/01/14 08:49:24;;;;;;;;;;;;;;;6.60;85.97;100999.91;7276051;19;20015;-68
2024/01/14 08:51:51;;;;;;;;;;;;;;;6.62;86.09;101005.81;7285779;19;19963;-69
2024/01/14 08:54:18;;;;;;;;;;;;;;;6.64;85.92;101003.09;7288143;19;19919;-66
2024/01/14 08:56:48;;;;;;;;;;;;;;;6.67;85.18;101010.66;7276329;19;20481;-68
2024/01/14 08:59:15;;;;;;;;;;;;;;;6.69;84.75;101006.16;7281039;19;19923;-67
2024/01/14 09:01:43;;;;;;;;;;;;;;;6.72;84.36;101006.72;7274483;19;19921;-66
2024/01/14 09:04:10;;;;;;;;;;;;;;;6.75;84.12;100996.03;7282937;19;19922;-67
2024/01/14 09:06:38;;;;;;;;;;;;;;;6.74;83.71;101002.22;7280302;19;22066;-66
2024/01/14 09:09:09;;;;;;;;;;;;;;;6.78;83.71;100997.56;7287886;19;19918;-66
2024/01/14 09:11:36;;;;;;;;;;;;;;;6.78;84.10;100998.41;7287430;19;19926;-68
2024/01/14 09:14:03;;;;;;;;;;;;;;;6.79;84.03;100994.84;7286614;19;19927;-68
2024/01/14 09:16:31;;;;;;;;;;;;;;;6.76;84.73;101002.91;7275071;19;20002;-65
2024/01/14 09:18:59;;;;;;;;;;;;;;;6.79;85.12;100994.00;7291929;19;19915;-66
2024/01/14 09:21:26;;;;;;;;;;;;;;;6.80;85.34;100993.88;7295448;19;19915;-67
2024/01/14 09:23:53;;;;;;;;;;;;;;;6.81;85.50;100992.06;7301519;19;20297;-66
2024/01/14 09:26:20;;;;;;;;;;;;;;;6.79;85.33;100992.22;7278175;19;20393;-68
2024/01/14 09:28:47;;;;;;;;;;;;;;;6.83;85.69;100984.94;7298582;19;20402;-67
2024/01/14 09:31:14;;;;;;;;;;;;;;;6.87;85.53;100981.13;7281180;19;19990;-67
2024/01/14 09:33:44;;;;;;;;;;;;;;;6.88;85.40;100980.16;7287547;19;19926;-66
2024/01/14 09:36:11;;;;;;;;;;;;;;;6.89;85.48;100984.44;7272323;19;20473;-67
2024/01/14 09:38:38;;;;;;;;;;;;;;;6.93;85.39;100985.84;7281546;19;19934;-68
2024/01/14 09:41:13;;;;;;;;;;;;;;;6.97;85.71;100991.66;7294094;19;19933;-68
2024/01/14 09:43:43;;;;;;;;;;;;;;;7.01;85.62;100990.47;7286010;19;20394;-68
2024/01/14 09:46:09;;;;;;;;;;;;;;;7.05;86.14;100989.25;7275035;19;20687;-68
2024/01/14 09:48:37;;;;;;;;;;;;;;;7.14;86.03;100983.25;7300167;19;19953;-68
2024/01/14 09:51:04;;;;;;;;;;;;;;;7.22;86.74;100986.06;7270479;19;20244;-68
2024/01/14 09:53:31;;;;;;;;;;;;;;;7.23;85.62;100985.09;7289196;19;20618;-67
2024/01/14 09:56:00;;;;;;;;;;;;;;;7.31;84.64;100980.09;7285216;19;20339;-66
2024/01/14 09:58:27;;;;;;;;;;;;;;;7.32;84.09;100987.78;7288108;19;19993;-67
2024/01/14 10:00:55;;;;;;;;;;;;;;;7.32;84.46;100993.03;7288180;19;19933;-69
2024/01/14 10:03:22;;;;;;;;;;;;;;;7.34;84.31;100984.22;7282083;19;20707;-67
2024/01/14 10:05:49;;;;;;;;;;;;;;;7.27;83.82;100981.28;7273483;19;19938;-66
2024/01/14 10:08:16;;;;;;;;;;;;;;;7.28;83.45;100991.63;7286045;19;20345;-67
2024/01/14 10:10:50;;;;;;;;;;;;;;;7.27;83.75;100989.97;7296735;19;19923;-68
2024/01/14 10:13:24;;;;;;;;;;;;;;;7.34;85.51;100982.44;7286431;19;19927;-66
2024/01/14 10:15:54;;;;;;;;;;;;;;;7.37;85.25;100986.56;7282471;19;20258;-68
2024/01/14 10:18:25;;;;;;;;;;;;;;;7.36;84.66;100985.75;7290245;19;20043;-67
2024/01/14 10:20:52;;;;;;;;;;;;;;;7.40;84.39;100983.72;7276022;19;20231;-67
2024/01/14 10:23:25;;;;;;;;;;;;;;;7.40;83.90;100975.88;7280060;19;19910;-68
2024/01/14 10:25:54;;;;;;;;;;;;;;;7.34;83.04;100978.97;7273947;19;19931;-68
2024/01/14 10:28:20;;;;;;;;;;;;;;;7.36;83.60;100971.84;7282006;19;19925;-66
2024/01/14 10:30:48;;;;;;;;;;;;;;;7.38;83.80;100972.53;7291552;19;19910;-67
2024/01/14 10:33:16;;;;;;;;;;;;;;;7.42;83.68;100966.91;7289766;19;20404;-68
2024/01/14 10:35:49;;;;;;;;;;;;;;;7.45;83.53;100968.44;7291232;19;20389;-67
2024/01/14 10:38:16;;;;;;;;;;;;;;;7.44;83.29;100953.69;7283961;19;20324;-68
2024/01/14 10:40:43;;;;;;;;;;;;;;;7.47;82.95;100949.03;7308286;19;19987;-69
2024/01/14 10:43:10;;;;;;;;;;;;;;;7.51;82.60;100953.06;7295692;19;19914;-66
2024/01/14 10:45:37;;;;;;;;;;;;;;;7.57;82.72;100949.06;7294810;19;19926;-66
2024/01/14 10:48:09;;;;;;;;;;;;;;;7.52;81.30;100933.75;7297629;19;19952;-66
2024/01/14 10:50:37;;;;;;;;;;;;;;;7.48;80.47;100934.97;7293391;19;20331;-68
2024/01/14 10:53:20;;;;;;;;;;;;;;;7.59;80.52;100931.44;7291138;19;19918;-68
2024/01/14 10:55:49;;;;;;;;;;;;;;;7.65;81.52;100934.38;7287633;19;20010;-66
2024/01/14 10:58:24;;;;;;;;;;;;;;;7.64;79.91;100932.72;7285821;19;20011;-67
2024/01/14 11:00:51;;;;;;;;;;;;;;;7.61;79.90;100929.53;7285416;19;19922;-67
2024/01/14 11:03:18;;;;;;;;;;;;;;;7.63;79.50;100925.00;7298813;19;20474;-66
2024/01/14 11:05:45;;;;;;;;;;;;;;;7.65;79.13;100915.22;7284038;19;20245;-68
2024/01/14 11:08:12;;;;;;;;;;;;;;;7.72;79.29;100909.31;7303521;19;19923;-67
2024/01/14 11:10:39;;;;;;;;;;;;;;;7.79;79.18;100907.00;7283788;19;20171;-68
2024/01/14 11:13:21;;;;;;;;;;;;;;;7.80;77.86;100906.03;7294665;19;19919;-68
2024/01/14 11:16:07;;;;;;;;;;;;;;;7.85;77.47;100898.63;7305104;19;19919;-67
2024/01/14 11:18:43;;;;;;;;;;;;;;;7.91;77.78;100895.47;7281933;19;20164;-69
2024/01/14 11:21:13;;;;;;;;;;;;;;;7.97;76.82;100891.50;7299110;19;19918;-68
2024/01/14 11:24:00;;;;;;;;;;;;;;;8.04;76.38;100887.34;7295079;19;19918;-67
2024/01/14 11:26:28;;;;;;;;;;;;;;;8.05;75.31;100889.84;7291381;19;19945;-67
2024/01/14 11:28:58;;;;;;;;;;;;;;;8.04;74.33;100876.88;7295757;19;19918;-67
2024/01/14 11:31:46;;;;;;;;;;;;;;;8.07;74.84;100876.63;7284689;19;20025;-66
2024/01/14 11:34:33;;;;;;;;;;;;;;;8.12;75.26;100872.63;7299295;19;19930;-67
2024/01/14 11:37:00;;;;;;;;;;;;;;;8.06;74.97;100870.53;7295545;19;19922;-67
2024/01/14 11:39:29;;;;;;;;;;;;;;;8.03;75.32;100869.97;7280386;19;20739;-67
2024/01/14 11:41:57;;;;;;;;;;;;;;;8.07;76.13;100860.91;7299025;19;20314;-66
2024/01/14 11:44:29;;;;;;;;;;;;;;;8.10;76.02;100860.63;7284872;19;20259;-68
2024/01/14 11:47:16;;;;;;;;;;;;;;;8.12;76.05;100862.16;7292536;19;20331;-68
2024/01/14 11:49:42;;;;;;;;;;;;;;;8.10;76.55;100855.38;7283003;19;19925;-69
2024/01/14 11:52:10;;;;;;;;;;;;;;;8.12;77.06;100848.22;7277328;19;19915;-67
2024/01/14 11:54:37;;;;;;;;;;;;;;;8.10;76.70;100850.13;7285130;19;19925;-67
2024/01/14 11:57:21;;;;;;;;;;;;;;;8.08;77.25;100838.94;7292037;19;20353;-68
2024/01/14 11:59:49;;;;;;;;;;;;;;;8.07;77.53;100830.28;7293807;19;19926;-68
2024/01/14 12:02:20;;;;;;;;;;;;;;;8.14;78.57;100823.50;7303655;19;19982;-70
2024/01/14 12:04:47;;;;;;;;;;;;;;;8.15;78.31;100838.28;7293803;19;19921;-68
2024/01/14 12:07:25;;;;;;;;;;;;;;;8.18;78.59;100825.88;7281790;19;19926;-67
2024/01/14 12:09:54;;;;;;;;;;;;;;;8.22;78.88;100817.59;7297258;19;20392;-68
2024/01/14 12:12:26;;;;;;;;;;;;;;;8.26;78.08;100823.38;7290792;19;20343;-68
2024/01/14 12:14:54;;;;;;;;;;;;;;;8.29;77.82;100813.44;7279733;19;20437;-67
2024/01/14 12:17:21;;;;;;;;;;;;;;;8.27;77.44;100807.53;7280845;19;19919;-67
2024/01/14 12:20:00;;;;;;;;;;;;;;;8.32;77.40;100818.47;7288864;19;20471;-67
2024/01/14 12:22:27;;;;;;;;;;;;;;;8.39;77.96;100801.19;7295527;19;19918;-67
2024/01/14 12:24:55;;;;;;;;;;;;;;;8.46;77.43;100798.84;7282539;19;21522;-69
2024/01/14 12:27:22;;;;;;;;;;;;;;;8.42;76.88;100800.09;7301981;19;19963;-67
2024/01/14 12:29:49;;;;;;;;;;;;;;;8.47;77.40;100795.25;7292252;19;20545;-68
2024/01/14 12:32:15;;;;;;;;;;;;;;;8.79;87.11;100782.63;7299628;19;20800;-67
2024/01/14 12:37:57;;;;;;;;;;;;;;;9.15;81.21;100777.53;7299370;19;19922;-67
2024/01/14 12:40:26;;;;;;;;;;;;;;;9.25;80.77;100773.88;7301920;19;21489;-67
2024/01/14 12:42:52;;;;;;;;;;;;;;;9.18;75.39;100772.00;7290365;19;19923;-67
2024/01/14 12:45:19;;;;;;;;;;;;;;;9.13;74.76;100761.94;7284883;19;20209;-67
2024/01/14 12:48:14;;;;;;;;;;;;;;;9.08;73.01;100763.34;7291400;19;19922;-67
2024/01/14 12:50:43;;;;;;;;;;;;;;;8.95;71.75;100751.38;7284658;19;19929;-68
2024/01/14 12:53:10;;;;;;;;;;;;;;;8.87;71.37;100759.13;7281949;19;20602;-67
2024/01/14 12:55:38;;;;;;;;;;;;;;;8.85;70.75;100747.13;7288465;19;19948;-67